UKWW/VIN METAR and TAF weather

Enter ICAO airport designator
Station Type Date Time Source
UKWW METAR 2019/04/25 02:30 UTC NOAA

UKWW 250230Z 11003MPS CAVOK 04/01 Q1025 NOSIG


Station Type Date Time Source
UKWW Decoded METAR 2019/04/25 02:30 UTC NOAA

Station name not available
Apr 24, 2019 - 10:30 PM EDT / 2019.04.25 0230 UTC
Wind: from the ESE (110 degrees) at 7 MPH (6 KT):0
Visibility: greater than 7 mile(s):0
Temperature: 39 F (4 C)
Dew Point: 33 F (1 C)
Relative Humidity: 80%
Pressure (altimeter): 30.27 in. Hg (1025 hPa)
ob: UKWW 250230Z 11003MPS CAVOK 04/01 Q1025 NOSIG
cycle: 2

Station Type Date Time Source
UKWW TAF 2010/03/21 10:45 UTC NOAA

TAF UKWW 211045Z 2112/2212 24005G10MPS 9999 SCT020 BKN070
TEMPO 2115/2207 1400 -SHRA BR SCT004 BKN007CB
FM220700 34007G12MPS 9999 SCT015 BKN100 TX11/2112Z TN01/2204Z

Example: see airport list